createdAt,value
2022-08-03T00:00:26.280Z,88.88
2022-08-03T00:02:53.016Z,88.52
2022-08-03T00:05:19.674Z,88.48
2022-08-03T00:07:46.114Z,88.07
2022-08-03T00:10:15.090Z,88.36
2022-08-03T00:12:41.564Z,88.72
2022-08-03T00:15:11.261Z,89.64
2022-08-03T00:17:53.358Z,89.14
2022-08-03T00:20:23.648Z,89.07
2022-08-03T00:22:50.775Z,89.08
2022-08-03T00:25:18.146Z,88.96
2022-08-03T00:27:45.100Z,88.70
2022-08-03T00:30:11.871Z,89.10
2022-08-03T00:32:41.385Z,89.47
2022-08-03T00:35:28.690Z,89.68
2022-08-03T00:37:58.888Z,89.37
2022-08-03T00:40:25.395Z,90.37
2022-08-03T00:42:57.894Z,90.30
2022-08-03T00:45:29.807Z,89.97
2022-08-03T00:47:56.826Z,90.14
2022-08-03T00:50:24.779Z,90.13
2022-08-03T00:52:56.328Z,90.30
2022-08-03T00:55:23.664Z,90.13
2022-08-03T00:57:50.883Z,90.22
2022-08-03T01:00:20.442Z,90.69
2022-08-03T01:02:49.827Z,91.01
2022-08-03T01:05:16.450Z,90.80
2022-08-03T01:07:59.984Z,90.94
2022-08-03T01:10:35.617Z,91.25
2022-08-03T01:14:03.920Z,92.10
2022-08-03T01:16:42.086Z,91.24
2022-08-03T01:19:36.413Z,91.36
2022-08-03T01:22:30.564Z,91.76
2022-08-03T01:25:06.305Z,92.61
2022-08-03T01:27:56.802Z,92.57
2022-08-03T01:30:35.278Z,91.87
2022-08-03T01:33:07.254Z,92.27
2022-08-03T01:36:00.527Z,92.57
2022-08-03T01:38:36.050Z,92.47
2022-08-03T01:41:10.984Z,93.58
2022-08-03T01:44:26.702Z,93.12
2022-08-03T01:46:28.612Z,92.94
2022-08-03T01:48:56.246Z,93.75
2022-08-03T01:51:23.451Z,94.24
2022-08-03T01:53:54.779Z,94.32
2022-08-03T01:56:24.901Z,94.16
2022-08-03T01:58:53.103Z,93.79
2022-08-03T02:01:22.694Z,93.46
2022-08-03T02:04:00.808Z,93.49
2022-08-03T02:06:59.988Z,93.13
2022-08-03T02:09:20.038Z,94.04
2022-08-03T02:11:47.526Z,94.05
2022-08-03T02:14:15.905Z,93.79
2022-08-03T02:16:45.468Z,93.68
2022-08-03T02:19:12.353Z,94.33
2022-08-03T02:21:57.471Z,94.25
2022-08-03T02:24:26.351Z,95.08
2022-08-03T02:26:56.518Z,94.04
2022-08-03T02:29:39.277Z,93.58
2022-08-03T02:32:12.571Z,93.11
2022-08-03T02:34:40.819Z,93.70
2022-08-03T02:37:10.332Z,93.62
2022-08-03T02:39:39.449Z,94.26
2022-08-03T02:42:08.760Z,93.72
2022-08-03T02:44:37.647Z,93.27
2022-08-03T02:47:09.720Z,93.94
2022-08-03T02:49:49.960Z,93.52
2022-08-03T02:52:19.854Z,93.29
2022-08-03T02:54:48.742Z,93.10
2022-08-03T02:57:16.217Z,92.77
2022-08-03T02:59:44.564Z,92.33
2022-08-03T03:02:12.403Z,93.07
2022-08-03T03:04:43.177Z,93.09
2022-08-03T03:07:27.045Z,94.74
2022-08-03T03:09:56.385Z,93.84
2022-08-03T03:12:24.619Z,93.94
2022-08-03T03:14:51.116Z,93.87
2022-08-03T03:17:18.990Z,93.81
2022-08-03T03:19:46.419Z,94.40
2022-08-03T03:22:15.275Z,93.83
2022-08-03T03:24:44.215Z,93.54
2022-08-03T03:27:11.086Z,93.36
2022-08-03T03:29:43.826Z,93.34
2022-08-03T03:32:10.711Z,93.03
2022-08-03T03:34:37.592Z,93.26
2022-08-03T03:37:05.121Z,92.83
2022-08-03T03:39:31.892Z,93.74
2022-08-03T03:41:58.564Z,93.08
2022-08-03T03:44:29.607Z,93.95
2022-08-03T03:46:57.994Z,94.28
2022-08-03T03:49:24.841Z,93.94
2022-08-03T03:51:55.283Z,93.63
2022-08-03T03:54:21.837Z,94.86
2022-08-03T03:56:52.392Z,94.28
2022-08-03T03:59:18.985Z,93.59
2022-08-03T04:01:45.780Z,93.04
2022-08-03T04:04:30.677Z,93.92
2022-08-03T04:07:16.031Z,93.89
2022-08-03T04:10:08.897Z,93.32
2022-08-03T04:12:50.406Z,93.10
2022-08-03T04:15:20.783Z,94.00
2022-08-03T04:17:50.259Z,94.08
2022-08-03T04:20:20.590Z,92.92
2022-08-03T04:22:50.952Z,93.17
2022-08-03T04:25:21.022Z,93.08
2022-08-03T04:28:27.405Z,92.52
2022-08-03T04:30:47.480Z,91.83
2022-08-03T04:33:16.487Z,91.42
2022-08-03T04:35:54.729Z,91.06
2022-08-03T04:38:30.530Z,91.71
2022-08-03T04:40:57.368Z,91.79
2022-08-03T04:43:25.296Z,90.20
2022-08-03T04:45:53.141Z,89.97
2022-08-03T04:48:20.251Z,89.25
2022-08-03T04:50:47.904Z,87.26
2022-08-03T04:53:14.400Z,84.09
2022-08-03T04:55:40.913Z,80.72
2022-08-03T04:58:07.481Z,77.17
2022-08-03T05:00:34.016Z,73.29
2022-08-03T05:03:00.499Z,69.40
2022-08-03T05:05:27.033Z,66.02
2022-08-03T05:08:13.559Z,63.75
2022-08-03T05:10:40.522Z,64.59
2022-08-03T05:13:11.960Z,62.91
2022-08-03T05:15:43.293Z,63.98
2022-08-03T05:18:13.856Z,62.64
2022-08-03T05:20:40.900Z,62.05
2022-08-03T05:23:07.402Z,60.71
2022-08-03T05:25:33.918Z,61.65
2022-08-03T05:28:00.433Z,62.03
2022-08-03T05:30:33.671Z,60.95
2022-08-03T05:33:01.259Z,58.01
2022-08-03T05:35:57.922Z,55.03
2022-08-03T05:38:15.385Z,56.15
2022-08-03T05:40:57.163Z,53.45
2022-08-03T05:43:37.212Z,52.84
2022-08-03T05:46:13.021Z,49.89
2022-08-03T05:48:40.080Z,50.05
2022-08-03T05:51:07.802Z,49.43
2022-08-03T05:53:34.628Z,48.76
2022-08-03T05:56:03.404Z,47.21
2022-08-03T05:58:40.026Z,46.16
2022-08-03T06:01:06.604Z,46.41
2022-08-03T06:03:33.073Z,45.67
2022-08-03T06:06:00.007Z,45.43
2022-08-03T06:08:27.121Z,43.21
2022-08-03T06:10:53.599Z,43.02
2022-08-03T06:13:20.075Z,42.52
2022-08-03T06:15:46.597Z,42.42
2022-08-03T06:18:13.071Z,43.67
2022-08-03T06:20:39.546Z,44.22
2022-08-03T06:23:07.503Z,42.76
2022-08-03T06:25:34.022Z,43.00
2022-08-03T06:28:00.584Z,42.24
2022-08-03T06:30:27.286Z,43.19
2022-08-03T06:32:53.737Z,42.88
2022-08-03T06:35:20.505Z,42.64
2022-08-03T06:37:51.576Z,43.00
2022-08-03T06:40:21.734Z,44.63
2022-08-03T06:42:50.958Z,45.46
2022-08-03T06:45:17.881Z,45.11
2022-08-03T06:47:44.575Z,44.60
2022-08-03T06:50:16.185Z,43.65
2022-08-03T06:52:43.899Z,41.84
2022-08-03T06:55:10.393Z,42.53
2022-08-03T06:57:36.895Z,42.50
2022-08-03T07:00:09.141Z,41.07
2022-08-03T07:02:39.722Z,41.59
2022-08-03T07:05:06.892Z,42.46
2022-08-03T07:07:33.569Z,42.43
2022-08-03T07:10:00.050Z,41.30
2022-08-03T07:12:30.283Z,43.46
2022-08-03T07:15:01.382Z,41.83
2022-08-03T07:17:34.225Z,41.12
2022-08-03T07:20:02.584Z,39.51
2022-08-03T07:22:29.035Z,42.53
2022-08-03T07:24:55.592Z,41.01
2022-08-03T07:27:22.497Z,40.87
2022-08-03T07:29:48.994Z,40.86
2022-08-03T07:32:15.605Z,40.29
2022-08-03T07:34:42.239Z,38.78
2022-08-03T07:37:08.826Z,40.67
2022-08-03T07:39:35.262Z,40.22
2022-08-03T07:42:01.772Z,41.67
2022-08-03T07:44:28.242Z,40.51
2022-08-03T07:46:54.771Z,39.07
2022-08-03T07:49:23.319Z,40.35
2022-08-03T07:52:09.821Z,40.19
2022-08-03T07:54:36.398Z,42.10
2022-08-03T07:57:02.918Z,41.42
2022-08-03T07:59:29.358Z,40.49
2022-08-03T08:02:15.931Z,40.53
2022-08-03T08:04:42.558Z,39.41
2022-08-03T08:07:09.333Z,38.25
2022-08-03T08:09:35.844Z,38.23
2022-08-03T08:12:02.680Z,39.09
2022-08-03T08:14:29.769Z,39.04
2022-08-03T08:16:56.224Z,40.13
2022-08-03T08:19:22.661Z,40.59
2022-08-03T08:21:53.505Z,40.27
2022-08-03T08:24:30.450Z,39.02
2022-08-03T08:26:57.815Z,39.92
2022-08-03T08:29:24.344Z,38.99
2022-08-03T08:31:50.885Z,39.75
2022-08-03T08:34:17.322Z,38.52
2022-08-03T08:36:44.049Z,40.51
2022-08-03T08:39:10.532Z,40.19
2022-08-03T08:41:37.042Z,40.49
2022-08-03T08:44:03.995Z,38.24
2022-08-03T08:46:34.176Z,37.70
2022-08-03T08:49:00.790Z,37.74
2022-08-03T08:51:54.651Z,37.27
2022-08-03T08:54:22.810Z,38.58
2022-08-03T08:56:52.662Z,38.63
2022-08-03T08:59:19.866Z,38.16
2022-08-03T09:01:46.433Z,37.60
2022-08-03T09:04:13.312Z,38.48
2022-08-03T09:06:39.826Z,39.19
2022-08-03T09:09:07.489Z,37.28
2022-08-03T09:11:54.471Z,38.57
2022-08-03T09:14:37.104Z,38.47
2022-08-03T09:17:07.204Z,39.34
2022-08-03T09:19:37.009Z,39.22
2022-08-03T09:22:14.774Z,40.99
2022-08-03T09:25:22.779Z,36.88
2022-08-03T09:27:49.817Z,36.79
2022-08-03T09:30:33.276Z,35.45
2022-08-03T09:33:08.315Z,35.47
2022-08-03T09:35:57.342Z,35.62
2022-08-03T09:38:28.019Z,37.18
2022-08-03T09:40:59.914Z,36.48
2022-08-03T09:43:27.795Z,35.87
2022-08-03T09:49:43.151Z,35.81
2022-08-03T09:52:31.296Z,34.94
2022-08-03T09:55:02.208Z,35.06
2022-08-03T09:57:30.809Z,33.34
2022-08-03T10:00:11.930Z,33.35
2022-08-03T10:02:39.316Z,32.64
2022-08-03T10:05:08.225Z,33.55
2022-08-03T10:07:48.206Z,33.54
2022-08-03T10:10:30.726Z,34.27
2022-08-03T10:13:00.020Z,32.55
2022-08-03T10:16:22.023Z,34.22
2022-08-03T10:18:14.147Z,33.42
2022-08-03T10:20:49.342Z,35.04
2022-08-03T10:23:17.758Z,34.72
2022-08-03T10:25:52.641Z,34.75
2022-08-03T10:28:21.215Z,35.79
2022-08-03T10:30:50.291Z,33.91
2022-08-03T10:33:52.012Z,34.00
2022-08-03T10:36:16.395Z,32.97
2022-08-03T10:38:47.246Z,32.79
2022-08-03T10:41:16.569Z,31.99
2022-08-03T10:43:52.843Z,32.05
2022-08-03T10:46:21.327Z,33.19
2022-08-03T10:48:50.585Z,32.61
2022-08-03T10:51:17.376Z,31.77
2022-08-03T10:57:47.454Z,32.31
2022-08-03T11:00:21.533Z,32.44
2022-08-03T11:03:09.166Z,32.54
2022-08-03T11:05:40.667Z,33.93
2022-08-03T11:08:28.512Z,30.88
2022-08-03T11:10:57.848Z,30.45
2022-08-03T11:13:26.315Z,31.32
2022-08-03T11:16:01.713Z,32.05
2022-08-03T11:18:30.104Z,31.32
2022-08-03T11:20:59.207Z,32.58
2022-08-03T11:24:04.362Z,30.59
2022-08-03T11:26:33.878Z,31.75
2022-08-03T11:29:29.548Z,32.48
2022-08-03T11:31:56.241Z,32.52
2022-08-03T11:34:24.574Z,30.91
2022-08-03T11:37:25.209Z,31.64
2022-08-03T11:39:54.886Z,31.17
2022-08-03T11:42:24.539Z,32.00
2022-08-03T11:44:58.349Z,31.34
2022-08-03T11:47:27.825Z,29.83
2022-08-03T11:49:58.953Z,29.33
2022-08-03T11:52:27.232Z,29.42
2022-08-03T11:54:57.109Z,29.39
2022-08-03T11:59:01.446Z,29.26
2022-08-03T12:00:27.253Z,30.66
2022-08-03T12:02:59.156Z,30.49
2022-08-03T12:05:51.243Z,30.11
2022-08-03T12:08:32.665Z,30.95
2022-08-03T12:11:01.955Z,30.40
2022-08-03T12:14:05.736Z,30.41
2022-08-03T12:16:25.497Z,30.70
2022-08-03T12:19:01.664Z,30.10
2022-08-03T12:21:29.447Z,31.19
2022-08-03T12:24:04.073Z,31.55
2022-08-03T12:26:58.556Z,31.96
2022-08-03T12:29:26.543Z,32.80
2022-08-03T12:31:53.081Z,31.66
2022-08-03T12:34:19.706Z,30.19
2022-08-03T12:36:54.371Z,32.35
2022-08-03T12:39:25.497Z,30.52
2022-08-03T12:41:55.305Z,31.41
2022-08-03T12:44:32.659Z,31.67
2022-08-03T12:47:00.556Z,31.47
2022-08-03T12:49:28.279Z,30.92
2022-08-03T12:51:54.795Z,30.09
2022-08-03T12:54:24.653Z,30.68
2022-08-03T12:57:00.948Z,30.97
2022-08-03T12:59:34.858Z,30.77
2022-08-03T13:02:04.483Z,30.98
2022-08-03T13:04:36.833Z,30.49
2022-08-03T13:07:06.473Z,29.43
2022-08-03T13:09:50.341Z,29.54
2022-08-03T13:12:18.912Z,29.77
2022-08-03T13:14:48.822Z,28.25
2022-08-03T13:17:19.011Z,27.84
2022-08-03T13:19:46.478Z,29.00
2022-08-03T13:22:21.059Z,27.77
2022-08-03T13:24:53.462Z,27.71
2022-08-03T13:28:03.348Z,27.19
2022-08-03T13:30:08.559Z,28.31
2022-08-03T13:33:31.448Z,29.28
2022-08-03T13:36:12.228Z,28.70
2022-08-03T13:38:38.831Z,29.55
2022-08-03T13:41:05.909Z,29.57
2022-08-03T13:43:32.515Z,29.43
2022-08-03T13:45:59.063Z,29.64
2022-08-03T13:48:37.375Z,30.11
2022-08-03T13:51:32.735Z,29.66
2022-08-03T13:58:03.563Z,29.85
2022-08-03T14:00:32.967Z,29.54
2022-08-03T14:03:09.163Z,30.54
2022-08-03T14:05:40.238Z,30.40
2022-08-03T14:08:07.516Z,30.61
2022-08-03T14:14:20.438Z,30.63
2022-08-03T14:16:46.910Z,30.59
2022-08-03T14:19:15.922Z,31.16
2022-08-03T14:22:00.279Z,30.62
2022-08-03T14:24:33.419Z,30.13
2022-08-03T14:30:41.035Z,29.74
2022-08-03T14:33:07.482Z,30.89
2022-08-03T14:43:07.394Z,30.87
2022-08-03T14:50:38.729Z,30.35
2022-08-03T14:52:08.434Z,31.42
2022-08-03T14:54:35.000Z,30.39
2022-08-03T14:57:01.693Z,30.37
2022-08-03T14:59:28.253Z,30.46
2022-08-03T15:02:23.350Z,31.54
2022-08-03T15:04:50.496Z,30.82
2022-08-03T15:07:17.075Z,31.03
2022-08-03T15:09:43.672Z,31.03
2022-08-03T15:12:10.225Z,31.16
2022-08-03T15:14:37.894Z,30.84
2022-08-03T15:17:04.835Z,30.79
2022-08-03T15:20:02.751Z,30.80
2022-08-03T15:22:20.826Z,30.59
2022-08-03T15:24:52.335Z,31.27
2022-08-03T15:27:19.172Z,31.64
2022-08-03T15:30:08.716Z,31.24
2022-08-03T15:32:35.063Z,31.09
2022-08-03T15:35:02.117Z,30.85
2022-08-03T15:37:28.680Z,31.19
2022-08-03T15:39:59.862Z,30.93
2022-08-03T15:42:28.522Z,30.76
2022-08-03T15:44:55.070Z,30.36
2022-08-03T15:47:21.937Z,30.94
2022-08-03T15:49:48.607Z,32.50
2022-08-03T15:52:15.105Z,31.93
2022-08-03T15:54:42.864Z,31.55
2022-08-03T15:57:09.537Z,32.65
2022-08-03T15:59:36.095Z,32.25
2022-08-03T16:02:02.720Z,33.63
2022-08-03T16:04:29.271Z,32.85
2022-08-03T16:06:55.752Z,32.84
2022-08-03T16:09:24.186Z,33.27
2022-08-03T16:12:15.527Z,32.89
2022-08-03T16:14:51.995Z,33.22
2022-08-03T16:17:19.532Z,32.95
2022-08-03T16:19:46.258Z,33.46
2022-08-03T16:22:13.405Z,32.99
2022-08-03T16:24:41.190Z,34.77
2022-08-03T16:27:17.624Z,33.49
2022-08-03T16:29:54.474Z,33.68
2022-08-03T16:32:21.026Z,34.19
2022-08-03T16:35:07.308Z,35.06
2022-08-03T16:37:38.814Z,35.21
2022-08-03T16:43:52.675Z,35.14
2022-08-03T16:46:19.131Z,35.17
2022-08-03T16:48:45.644Z,35.14
2022-08-03T16:51:12.439Z,34.67
2022-08-03T16:54:07.201Z,35.56
2022-08-03T16:56:25.451Z,36.55
2022-08-03T16:58:52.398Z,36.66
2022-08-03T17:01:22.098Z,37.03
2022-08-03T17:04:01.646Z,36.14
2022-08-03T17:06:35.856Z,36.72
2022-08-03T17:09:09.099Z,37.67
2022-08-03T17:11:38.852Z,36.98
2022-08-03T17:14:11.755Z,37.34
2022-08-03T17:16:39.143Z,37.13
2022-08-03T17:19:21.619Z,38.01
2022-08-03T17:22:09.047Z,36.88
2022-08-03T17:24:40.974Z,38.30
2022-08-03T17:28:41.571Z,37.93
2022-08-03T17:30:01.397Z,38.36
2022-08-03T17:32:32.560Z,38.53
2022-08-03T17:35:00.761Z,39.04
2022-08-03T17:37:57.712Z,40.04
2022-08-03T17:40:17.976Z,40.17
2022-08-03T17:42:45.393Z,40.13
2022-08-03T17:45:17.158Z,39.46
2022-08-03T17:47:45.335Z,40.01
2022-08-03T17:50:33.826Z,40.66
2022-08-03T17:53:24.015Z,39.94
2022-08-03T17:56:07.701Z,40.43
2022-08-03T17:58:59.238Z,40.24
2022-08-03T18:02:29.544Z,40.12
2022-08-03T18:05:16.432Z,40.69
2022-08-03T18:08:01.595Z,39.26
2022-08-03T18:10:35.505Z,39.77
2022-08-03T18:13:10.874Z,39.55
2022-08-03T18:15:45.377Z,39.48
2022-08-03T18:18:16.129Z,40.90
2022-08-03T18:20:56.833Z,40.28
2022-08-03T18:26:16.409Z,40.13
2022-08-03T18:28:44.209Z,40.39
2022-08-03T18:31:12.619Z,40.25
2022-08-03T18:34:18.877Z,41.28
2022-08-03T18:36:30.506Z,42.76
2022-08-03T18:38:58.710Z,42.67
2022-08-03T18:44:52.792Z,44.34
2022-08-03T18:47:23.961Z,45.32
2022-08-03T18:50:19.334Z,46.11
2022-08-03T18:52:55.072Z,46.57
2022-08-03T18:55:32.927Z,47.59
2022-08-03T18:58:08.947Z,48.29
2022-08-03T19:00:54.714Z,49.29
2022-08-03T19:03:41.280Z,50.50
2022-08-03T19:06:19.913Z,51.45
2022-08-03T19:08:58.664Z,52.27
2022-08-03T19:12:28.316Z,53.42
2022-08-03T19:14:28.805Z,54.03
2022-08-03T19:17:09.148Z,55.27
2022-08-03T19:19:44.411Z,55.33
2022-08-03T19:22:15.997Z,55.74
2022-08-03T19:24:44.340Z,55.66
2022-08-03T19:27:12.308Z,55.89
2022-08-03T19:32:33.735Z,55.18
2022-08-03T19:35:02.488Z,54.72
2022-08-03T19:37:38.117Z,54.94
2022-08-03T19:40:10.933Z,54.68
2022-08-03T19:42:44.392Z,54.49
2022-08-03T19:45:14.713Z,55.28
2022-08-03T19:47:52.529Z,56.59
2022-08-03T19:50:20.401Z,57.78
2022-08-03T19:52:49.618Z,58.57
2022-08-03T19:55:18.084Z,59.72
2022-08-03T19:57:49.155Z,60.31
2022-08-03T20:00:19.569Z,60.99
2022-08-03T20:02:47.051Z,60.46
2022-08-03T20:05:17.974Z,60.63
2022-08-03T20:07:47.765Z,60.90
2022-08-03T20:10:16.395Z,61.45
2022-08-03T20:12:44.604Z,62.18
2022-08-03T20:15:11.513Z,61.87
2022-08-03T20:17:54.882Z,62.94
2022-08-03T20:24:23.753Z,63.50
2022-08-03T20:26:54.134Z,63.35
2022-08-03T20:29:42.532Z,63.99
2022-08-03T20:32:09.631Z,64.35
2022-08-03T20:34:38.363Z,64.23
2022-08-03T20:37:05.210Z,64.91
2022-08-03T20:39:36.051Z,65.48
2022-08-03T20:42:05.093Z,66.72
2022-08-03T20:44:32.218Z,66.63
2022-08-03T20:47:00.752Z,67.28
2022-08-03T20:49:28.139Z,67.67
2022-08-03T20:51:54.635Z,67.53
2022-08-03T20:54:31.043Z,67.76
2022-08-03T20:57:03.728Z,68.06
2022-08-03T20:59:47.333Z,67.80
2022-08-03T21:02:29.471Z,68.21
2022-08-03T21:05:03.289Z,68.38
2022-08-03T21:07:45.608Z,68.63
2022-08-03T21:10:29.745Z,69.53
2022-08-03T21:12:57.900Z,40.31
2022-08-03T21:13:02.300Z,55.45
2022-08-03T21:13:04.759Z,43.11
2022-08-03T21:16:03.334Z,71.59
2022-08-03T21:18:44.962Z,71.50
2022-08-03T21:21:14.932Z,71.57
2022-08-03T21:23:47.988Z,72.14
2022-08-03T21:26:17.017Z,71.52
2022-08-03T21:28:46.353Z,71.94
2022-08-03T21:31:13.679Z,71.62
2022-08-03T21:33:40.930Z,71.71
2022-08-03T21:36:16.787Z,71.80
2022-08-03T21:38:44.053Z,72.14
2022-08-03T21:41:14.118Z,72.27
2022-08-03T21:43:40.742Z,72.47
2022-08-03T21:46:08.116Z,72.30
2022-08-03T21:48:39.872Z,72.35
2022-08-03T21:51:07.068Z,72.89
2022-08-03T21:54:04.006Z,72.93
2022-08-03T21:56:22.341Z,73.19
2022-08-03T21:58:59.940Z,73.99
2022-08-03T22:01:28.356Z,74.06
2022-08-03T22:04:11.966Z,74.25
2022-08-03T22:06:54.802Z,73.91
2022-08-03T22:09:21.730Z,73.72
2022-08-03T22:11:50.924Z,74.24
2022-08-03T22:14:17.643Z,74.10
2022-08-03T22:16:44.778Z,74.04
2022-08-03T22:19:11.563Z,73.74
2022-08-03T22:21:38.407Z,73.65
2022-08-03T22:24:06.304Z,74.23
2022-08-03T22:26:35.844Z,74.24
2022-08-03T22:29:07.313Z,74.14
2022-08-03T22:31:57.805Z,74.22
2022-08-03T22:34:26.743Z,74.41
2022-08-03T22:37:00.408Z,74.07
2022-08-03T22:39:28.285Z,74.35
2022-08-03T22:41:59.835Z,74.83
2022-08-03T22:44:27.561Z,74.53
2022-08-03T22:46:55.467Z,74.59
2022-08-03T22:49:22.770Z,74.62
2022-08-03T22:51:51.624Z,74.32
2022-08-03T22:54:18.266Z,74.44
2022-08-03T22:56:46.994Z,74.39
2022-08-03T22:59:39.830Z,74.23
2022-08-03T23:02:15.363Z,73.01
2022-08-03T23:04:54.965Z,72.20
2022-08-03T23:07:28.625Z,71.63
2022-08-03T23:09:56.786Z,71.37
2022-08-03T23:12:23.904Z,70.70
2022-08-03T23:14:56.329Z,70.64
2022-08-03T23:17:24.055Z,71.08
2022-08-03T23:19:52.626Z,70.49
2022-08-03T23:22:30.320Z,69.60
2022-08-03T23:24:58.530Z,69.24
2022-08-03T23:27:27.197Z,68.75
2022-08-03T23:29:54.010Z,68.19
2022-08-03T23:32:21.085Z,67.69
2022-08-03T23:35:07.643Z,68.02
2022-08-03T23:38:10.818Z,66.94
2022-08-03T23:40:29.675Z,67.24
2022-08-03T23:42:57.297Z,68.45
2022-08-03T23:45:25.629Z,67.83
2022-08-03T23:47:52.057Z,66.12
2022-08-03T23:50:18.700Z,67.20
2022-08-03T23:52:53.031Z,68.21
2022-08-03T23:55:40.742Z,65.42
2022-08-03T23:58:28.341Z,66.07
